ADDS METAR Data INFO
IDs: Format: Raw Decoded Include TAF

Data at: 0845 UTC 27 Jun 2017

KRKS 270812Z AUTO 17011G15KT 10SM FEW050 SCT100 BKN120 22/00 A3007 RMK AO2 PK WND 25035/0800 WSHFT 0752 RAB0755E08 P0000 T02220000 TSNO
KRKS 270754Z AUTO 20023G31KT 10SM SCT110 21/01 A3010 RMK AO2 PK WND 21031/0753 SLP088 T02110011 TSNO
KRKS 270654Z AUTO 28008KT 10SM CLR 18/M02 A3011 RMK AO2 PRESRR SLP099 T01781017 403110106 TSNO
KRKS 270554Z AUTO 14007KT 10SM CLR 19/M02 A3009 RMK AO2 SLP091 T01941017 10278 20183 58010 TSNO
KRKS 270454Z AUTO 21007KT 10SM CLR 20/M02 A3010 RMK AO2 SLP097 T02001017 TSNO
KRKS 270354Z AUTO 22009KT 10SM CLR 21/M01 A3012 RMK AO2 SLP110 T02111011 TSNO
KRKS 270254Z AUTO 23012KT 10SM CLR 22/M01 A3012 RMK AO2 SLP113 T02221011 58006 TSNO
KRKS 270154Z AUTO 22015KT 10SM CLR 24/00 A3013 RMK AO2 PK WND 21031/0104 SLP118 T02440000 TSNO
KRKS 270054Z AUTO 28010G37KT 10SM FEW070 SCT085 BKN110 27/M03 A3015 RMK AO2 PK WND 24037/0050 SLP121 T02671033 TSNO
KRKS 262354Z AUTO 24015G19KT 10SM CLR 28/M04 A3015 RMK AO2 SLP124 T02781039 10311 20256 56015 TSNO
KRKS 262254Z AUTO 32009G20KT 140V060 10SM CLR 31/M08 A3016 RMK AO2 SLP123 T03061078 TSNO
KRKS 262154Z AUTO 25012G23KT 10SM CLR 30/M09 A3018 RMK AO2 SLP130 T03001094 TSNO
KRKS 262054Z AUTO 22009G18KT 10SM CLR 30/M06 A3020 RMK AO2 SLP136 T03001056 56025 TSNO
KRKS 261954Z AUTO 23007KT 10SM CLR 28/M04 A3023 RMK AO2 SLP143 T02831044 TSNO
KRKS 261854Z AUTO 08006KT 10SM CLR 28/M02 A3026 RMK AO2 SLP157 T02781022 TSNO
KRKS 261754Z AUTO 17008KT 140V220 10SM CLR 26/M02 A3029 RMK AO2 SLP168 T02611022 10261 20111 58012 TSNO
KRKS 261654Z AUTO 05005KT 10SM CLR 24/M02 A3031 RMK AO2 SLP175 T02391022 TSNO
KRKS 261554Z AUTO 00000KT 10SM CLR 20/M02 A3033 RMK AO2 SLP181 T02001017 TSNO
KRKS 261454Z AUTO 08006KT 10SM CLR 17/00 A3033 RMK AO2 SLP190 T01720000 58001 TSNO
KRKS 261354Z AUTO 13003KT 10SM CLR 14/M01 A3034 RMK AO2 SLP193 T01441011 TSNO
KRKS 261254Z AUTO 10004KT 10SM CLR 13/M02 A3034 RMK AO2 SLP195 T01281017 TSNO
KRKS 261154Z AUTO 07005KT 10SM CLR 11/M03 A3034 RMK AO2 SLP193 T01111028 10161 20106 55000 TSNO
KRKS 261054Z AUTO 07006KT 10SM CLR 12/M03 A3033 RMK AO2 SLP192 T01171028 TSNO
KRKS 260954Z AUTO 08007KT 10SM CLR 12/M04 A3033 RMK AO2 SLP192 T01221039 TSNO
KRKS 260854Z AUTO 08009KT 10SM CLR 12/M03 A3034 RMK AO2 SLP193 T01221033 50002 TSNO
KRKS 260754Z AUTO 07007KT 10SM CLR 16/M04 A3034 RMK AO2 SLP189 T01561044 TSNO
KRKS 260654Z AUTO 06007KT 10SM CLR 14/00 A3033 RMK AO2 SLP193 T01390000 402720089 TSNO
KRKS 260554Z AUTO 07006KT 10SM CLR 16/M02 A3033 RMK AO2 SLP190 T01611022 10261 20150 53005 TSNO
KRKS 260454Z AUTO 19005KT 10SM CLR 18/M04 A3032 RMK AO2 SLP188 T01781039 TSNO
KRKS 260354Z AUTO 10003KT 10SM CLR 22/M06 A3032 RMK AO2 SLP181 T02171056 TSNO
KRKS 260254Z AUTO 05003KT 10SM CLR 22/M04 A3031 RMK AO2 SLP184 T02171039 56003 TSNO
KRKS 260154Z AUTO 02006KT 10SM CLR 24/M04 A3031 RMK AO2 SLP184 T02441039 TSNO
KRKS 260054Z AUTO 15003KT 10SM CLR 25/M05 A3031 RMK AO2 SLP188 T02501050 TSNO
KRKS 252354Z AUTO 30009KT 10SM CLR 26/M06 A3032 RMK AO2 SLP192 T02611056 10272 20211 58012 TSNO
KRKS 252254Z AUTO VRB04KT 10SM CLR 26/M05 A3033 RMK AO2 SLP194 T02611050 TSNO
KRKS 252154Z AUTO VRB04KT 10SM CLR 25/M05 A3035 RMK AO2 SLP203 T02501050 TSNO
KRKS 252054Z AUTO VRB06KT 10SM CLR 26/M06 A3036 RMK AO2 SLP202 T02561056 58013 TSNO


Page loaded:  08:45 UTC  |   01:45 AM Pacific  |   02:45 AM Mountain  |   03:45 AM Central  |   04:45 AM Eastern

 

ADVISORIES

FORECASTS

FORECASTS

OBSERVATIONS

USER TOOLS

ABOUT US